createdAt,value
2022-12-29T00:01:43.273Z,2.80
2022-12-29T00:04:14.746Z,2.60
2022-12-29T00:06:43.271Z,2.10
2022-12-29T00:09:12.427Z,2.10
2022-12-29T00:11:39.624Z,2.60
2022-12-29T00:14:26.275Z,3.80
2022-12-29T00:16:54.632Z,3.00
2022-12-29T00:19:40.087Z,2.30
2022-12-29T00:22:25.515Z,2.30
2022-12-29T00:25:01.322Z,2.20
2022-12-29T00:27:47.597Z,2.80
2022-12-29T00:30:36.364Z,2.90
2022-12-29T00:33:34.481Z,2.80
2022-12-29T00:36:05.470Z,2.10
2022-12-29T00:38:55.464Z,2.50
2022-12-29T00:41:41.036Z,2.60
2022-12-29T00:44:08.518Z,2.50
2022-12-29T00:46:35.702Z,2.40
2022-12-29T00:49:21.442Z,2.20
2022-12-29T00:51:48.576Z,2.30
2022-12-29T00:54:15.584Z,2.90
2022-12-29T00:56:42.507Z,2.60
2022-12-29T00:59:10.992Z,2.60
2022-12-29T01:01:38.344Z,2.50
2022-12-29T01:04:05.998Z,3.00
2022-12-29T01:06:33.889Z,2.90
2022-12-29T01:09:19.476Z,2.50
2022-12-29T01:11:46.786Z,2.50
2022-12-29T01:14:14.015Z,2.50
2022-12-29T01:16:41.243Z,2.80
2022-12-29T01:19:08.602Z,2.80
2022-12-29T01:21:35.819Z,2.70
2022-12-29T01:24:02.665Z,2.70
2022-12-29T01:26:29.550Z,3.30
2022-12-29T01:28:56.480Z,3.00
2022-12-29T01:31:23.486Z,3.10
2022-12-29T01:33:50.278Z,3.10
2022-12-29T01:36:19.128Z,3.00
2022-12-29T01:38:46.280Z,2.90
2022-12-29T01:41:14.304Z,2.80
2022-12-29T01:43:45.526Z,2.90
2022-12-29T01:46:29.495Z,2.70
2022-12-29T01:49:13.179Z,3.10
2022-12-29T01:51:43.814Z,3.00
2022-12-29T01:54:19.496Z,2.90
2022-12-29T01:56:48.161Z,2.90
2022-12-29T01:59:18.281Z,2.60
2022-12-29T02:01:45.812Z,3.00
2022-12-29T02:04:13.136Z,2.40
2022-12-29T02:06:52.358Z,3.10
2022-12-29T02:09:19.747Z,2.60
2022-12-29T02:11:46.713Z,2.90
2022-12-29T02:14:14.232Z,2.50
2022-12-29T02:16:45.077Z,3.00
2022-12-29T02:19:24.366Z,2.70
2022-12-29T02:22:15.705Z,2.70
2022-12-29T02:24:50.368Z,2.80
2022-12-29T02:27:50.284Z,2.10
2022-12-29T02:30:33.241Z,2.30
2022-12-29T02:33:01.133Z,2.10
2022-12-29T02:36:06.867Z,2.50
2022-12-29T02:39:08.597Z,2.60
2022-12-29T02:42:11.401Z,2.50
2022-12-29T02:44:42.108Z,2.50
2022-12-29T02:47:23.797Z,2.60
2022-12-29T02:49:55.162Z,2.30
2022-12-29T02:52:31.988Z,2.60
2022-12-29T02:54:59.637Z,2.60
2022-12-29T02:57:26.903Z,2.50
2022-12-29T03:00:30.103Z,2.60
2022-12-29T03:03:29.576Z,2.70
2022-12-29T03:06:09.106Z,2.40
2022-12-29T03:08:44.866Z,2.40
2022-12-29T03:11:33.514Z,2.20
2022-12-29T03:14:30.371Z,2.80
2022-12-29T03:17:00.832Z,2.20
2022-12-29T03:19:38.398Z,2.60
2022-12-29T03:22:29.351Z,2.30
2022-12-29T03:25:30.876Z,2.40
2022-12-29T03:27:59.979Z,4.30
2022-12-29T03:30:28.068Z,5.60
2022-12-29T03:33:01.023Z,10.70
2022-12-29T03:35:33.990Z,7.40
2022-12-29T03:38:13.703Z,8.00
2022-12-29T03:40:43.510Z,6.10
2022-12-29T03:43:10.867Z,3.10
2022-12-29T03:45:37.756Z,3.70
2022-12-29T03:48:04.988Z,6.80
2022-12-29T03:50:32.652Z,4.00
2022-12-29T03:52:59.505Z,3.60
2022-12-29T03:55:27.263Z,3.50
2022-12-29T03:57:54.393Z,5.20
2022-12-29T04:00:30.747Z,3.90
2022-12-29T04:02:57.851Z,5.00
2022-12-29T04:05:24.803Z,3.20
2022-12-29T04:07:54.470Z,3.10
2022-12-29T04:10:21.378Z,2.80
2022-12-29T04:12:50.428Z,3.90
2022-12-29T04:15:17.532Z,4.20
2022-12-29T04:17:45.166Z,4.80
2022-12-29T04:20:31.531Z,2.60
2022-12-29T04:23:03.233Z,2.70
2022-12-29T04:25:34.465Z,4.00
2022-12-29T04:28:01.701Z,3.10
2022-12-29T04:30:44.733Z,2.70
2022-12-29T04:33:23.530Z,3.10
2022-12-29T04:35:50.451Z,5.10
2022-12-29T04:38:17.646Z,3.50
2022-12-29T04:40:45.973Z,3.20
2022-12-29T04:43:13.283Z,3.10
2022-12-29T04:46:00.006Z,3.80
2022-12-29T04:48:32.896Z,3.90
2022-12-29T04:51:18.788Z,3.20
2022-12-29T04:53:46.725Z,7.90
2022-12-29T04:56:13.590Z,3.40
2022-12-29T04:58:40.471Z,3.20
2022-12-29T05:01:07.534Z,4.00
2022-12-29T05:03:34.479Z,3.00
2022-12-29T05:06:01.277Z,3.60
2022-12-29T05:08:28.755Z,3.70
2022-12-29T05:10:58.356Z,3.60
2022-12-29T05:13:25.466Z,3.10
2022-12-29T05:15:53.301Z,3.20
2022-12-29T05:18:22.012Z,5.50
2022-12-29T05:20:49.442Z,3.40
2022-12-29T05:23:16.968Z,2.90
2022-12-29T05:25:49.850Z,3.10
2022-12-29T05:28:31.064Z,3.10
2022-12-29T05:31:03.627Z,3.10
2022-12-29T05:33:31.301Z,3.00
2022-12-29T05:36:05.386Z,2.60
2022-12-29T05:38:32.446Z,2.90
2022-12-29T10:55:20.984Z,2.90
2022-12-29T10:57:48.359Z,2.70
2022-12-29T11:00:21.683Z,3.20
2022-12-29T11:03:03.743Z,3.00
2022-12-29T11:05:39.879Z,3.20
2022-12-29T11:08:11.566Z,3.00
2022-12-29T11:10:42.134Z,3.40
2022-12-29T11:13:20.073Z,2.40
2022-12-29T11:15:51.029Z,2.40
2022-12-29T11:18:22.916Z,2.80
2022-12-29T11:20:54.958Z,2.60
2022-12-29T11:23:24.353Z,3.30
2022-12-29T11:26:16.876Z,2.70
2022-12-29T11:28:48.670Z,2.80
2022-12-29T11:31:19.040Z,2.60
2022-12-29T11:33:46.504Z,2.90
2022-12-29T11:36:17.489Z,3.30
2022-12-29T11:38:55.014Z,3.20
2022-12-29T11:41:32.156Z,3.20
2022-12-29T11:44:01.162Z,3.30
2022-12-29T11:46:33.463Z,3.40
2022-12-29T11:49:01.819Z,3.40
2022-12-29T11:51:45.258Z,3.50
2022-12-29T11:54:17.884Z,3.70
2022-12-29T11:56:45.464Z,3.90
2022-12-29T11:59:27.876Z,2.90
2022-12-29T12:01:55.043Z,3.20
2022-12-29T12:04:23.995Z,3.10
2022-12-29T12:07:00.114Z,3.10
2022-12-29T12:09:38.262Z,3.10
2022-12-29T12:12:05.315Z,3.60
2022-12-29T12:14:38.726Z,3.30
2022-12-29T12:17:38.606Z,3.80
2022-12-29T12:20:19.609Z,2.90
2022-12-29T12:23:14.044Z,3.20
2022-12-29T12:25:50.280Z,3.40
2022-12-29T12:28:24.080Z,3.40
2022-12-29T12:30:53.011Z,4.20
2022-12-29T12:33:29.984Z,3.90
2022-12-29T12:36:18.689Z,3.70
2022-12-29T12:39:11.028Z,3.50
2022-12-29T12:42:08.979Z,3.40
2022-12-29T12:45:04.016Z,3.50
2022-12-29T12:47:40.434Z,3.50
2022-12-29T12:50:13.533Z,3.80
2022-12-29T12:52:55.847Z,3.70
2022-12-29T12:55:25.829Z,4.00
2022-12-29T12:58:14.240Z,3.80
2022-12-29T13:00:59.592Z,4.10
2022-12-29T13:03:40.863Z,3.70
2022-12-29T13:06:40.639Z,3.80
2022-12-29T13:09:29.855Z,3.10
2022-12-29T13:12:05.657Z,4.00
2022-12-29T13:14:49.843Z,3.30
2022-12-29T13:17:24.460Z,3.90
2022-12-29T13:20:11.281Z,4.00
2022-12-29T13:22:53.999Z,3.40
2022-12-29T13:25:46.420Z,3.90
2022-12-29T13:28:38.653Z,3.70
2022-12-29T13:31:16.942Z,3.30
2022-12-29T13:34:05.714Z,3.30
2022-12-29T13:36:40.791Z,3.90
2022-12-29T13:39:38.719Z,3.70
2022-12-29T13:42:06.327Z,3.50
2022-12-29T13:44:37.235Z,3.60
2022-12-29T13:47:14.994Z,4.00
2022-12-29T13:49:41.839Z,3.70
2022-12-29T13:52:22.168Z,3.50
2022-12-29T13:55:07.860Z,4.10
2022-12-29T13:58:03.810Z,4.30
2022-12-29T14:00:40.891Z,4.30
2022-12-29T14:03:28.289Z,5.40
2022-12-29T14:06:28.673Z,5.50
2022-12-29T14:09:02.459Z,5.10
2022-12-29T14:11:33.657Z,5.80
2022-12-29T14:14:01.300Z,4.60
2022-12-29T14:16:32.674Z,4.50
2022-12-29T14:19:39.399Z,4.70
2022-12-29T14:22:06.418Z,4.00
2022-12-29T14:24:36.174Z,3.40
2022-12-29T14:27:16.337Z,4.30
2022-12-29T14:29:45.421Z,3.80
2022-12-29T14:32:22.374Z,3.90
2022-12-29T14:34:52.394Z,4.40
2022-12-29T14:37:36.203Z,5.90
2022-12-29T14:40:20.418Z,4.10
2022-12-29T14:42:51.334Z,9.20
2022-12-29T14:45:18.125Z,3.80
2022-12-29T16:21:42.777Z,4.80
2022-12-29T16:24:31.464Z,5.00
2022-12-29T16:27:09.373Z,4.60
2022-12-29T16:29:36.301Z,6.40
2022-12-29T16:32:06.325Z,4.70
2022-12-29T16:35:01.756Z,6.60
2022-12-29T16:37:33.606Z,5.60
2022-12-29T16:40:20.779Z,4.90
2022-12-29T16:42:51.782Z,4.70
2022-12-29T16:45:19.149Z,5.20
2022-12-29T16:48:07.058Z,5.30
2022-12-29T16:50:34.973Z,5.00
2022-12-29T16:53:03.725Z,4.70
2022-12-29T16:55:31.492Z,4.70
2022-12-29T16:57:59.630Z,4.60
2022-12-29T17:00:27.800Z,5.00
2022-12-29T17:02:57.168Z,4.40
2022-12-29T17:05:26.974Z,6.10
2022-12-29T17:07:54.075Z,5.30
2022-12-29T17:10:21.248Z,5.70
2022-12-29T17:12:49.133Z,4.60
2022-12-29T17:15:17.580Z,5.50
2022-12-29T17:17:45.967Z,5.00
2022-12-29T17:20:23.770Z,5.70
2022-12-29T17:22:51.692Z,6.00
2022-12-29T17:25:39.748Z,5.50
2022-12-29T17:28:23.191Z,8.10
2022-12-29T17:30:50.076Z,14.50
2022-12-29T17:33:18.807Z,9.90
2022-12-29T17:35:48.359Z,14.00
2022-12-29T17:38:19.552Z,9.40
2022-12-29T17:40:46.585Z,11.00
2022-12-29T17:43:16.124Z,13.00
2022-12-29T17:46:16.479Z,6.80
2022-12-29T17:48:48.086Z,5.50
2022-12-29T17:51:19.508Z,6.20
2022-12-29T17:53:46.537Z,7.40
2022-12-29T17:56:13.716Z,9.80
2022-12-29T17:58:40.894Z,5.50
2022-12-29T18:01:08.250Z,6.40
2022-12-29T18:03:39.929Z,4.80
2022-12-29T18:06:08.758Z,4.50
2022-12-29T18:08:36.553Z,4.50
2022-12-29T18:11:04.221Z,8.30
2022-12-29T18:13:43.731Z,4.90
2022-12-29T18:16:13.471Z,6.00
2022-12-29T18:18:40.684Z,3.90
2022-12-29T18:21:14.672Z,4.10
2022-12-29T18:23:42.035Z,6.40
2022-12-29T18:26:28.612Z,5.20
2022-12-29T18:28:57.385Z,4.70
2022-12-29T18:31:25.402Z,3.80
2022-12-29T18:33:52.521Z,3.70
2022-12-29T18:36:20.044Z,3.60
2022-12-29T18:38:47.167Z,4.20
2022-12-29T18:41:19.689Z,3.90
2022-12-29T18:43:47.017Z,4.10
2022-12-29T18:46:20.373Z,5.60
2022-12-29T18:48:50.888Z,4.90
2022-12-29T18:51:27.615Z,5.00
2022-12-29T18:53:54.930Z,4.30
2022-12-29T18:56:23.985Z,4.20
2022-12-29T18:58:51.824Z,3.70
2022-12-29T19:01:21.054Z,3.80
2022-12-29T19:03:48.017Z,4.30
2022-12-29T19:06:15.196Z,5.30
2022-12-29T19:08:42.472Z,4.80
2022-12-29T19:11:09.335Z,5.30
2022-12-29T19:13:37.990Z,4.10
2022-12-29T19:16:06.829Z,3.90
2022-12-29T19:18:44.170Z,3.00
2022-12-29T19:21:11.808Z,3.40
2022-12-29T19:23:38.831Z,3.40
2022-12-29T19:26:06.151Z,4.30
2022-12-29T19:28:33.613Z,4.40
2022-12-29T19:31:01.753Z,3.20
2022-12-29T19:33:29.012Z,4.60
2022-12-29T19:36:00.770Z,4.10
2022-12-29T19:38:27.660Z,4.00
2022-12-29T19:40:54.631Z,4.20
2022-12-29T19:43:23.464Z,4.10
2022-12-29T19:45:51.490Z,4.00
2022-12-29T19:48:19.386Z,4.40
2022-12-29T19:50:47.710Z,3.80
2022-12-29T19:53:15.403Z,4.60
2022-12-29T19:55:45.621Z,4.10
2022-12-29T19:58:13.287Z,5.00
2022-12-29T20:00:44.008Z,7.80
2022-12-29T20:03:11.233Z,4.20
2022-12-29T20:05:39.001Z,4.80
2022-12-29T20:08:06.503Z,4.00
2022-12-29T20:10:33.575Z,4.10
2022-12-29T20:13:00.781Z,4.00
2022-12-29T20:15:27.695Z,6.60
2022-12-29T20:20:42.319Z,5.30
2022-12-29T20:23:09.132Z,5.30
2022-12-29T20:25:45.113Z,6.10
2022-12-29T20:28:13.590Z,4.40
2022-12-29T20:30:40.647Z,10.10
2022-12-29T20:33:08.585Z,4.90
2022-12-29T20:35:36.747Z,4.10
2022-12-29T20:38:04.285Z,4.10
2022-12-29T20:40:31.582Z,4.20
2022-12-29T20:42:58.748Z,4.30
2022-12-29T20:45:25.695Z,8.30
2022-12-29T20:47:52.873Z,7.50
2022-12-29T20:50:20.285Z,4.20
2022-12-29T20:52:47.170Z,4.00
2022-12-29T20:55:14.345Z,4.10
2022-12-29T20:58:22.136Z,5.20
2022-12-29T21:00:30.693Z,5.00
2022-12-29T21:02:59.351Z,5.00
2022-12-29T21:05:29.534Z,4.10
2022-12-29T21:07:59.885Z,5.30
2022-12-29T21:10:27.057Z,4.70
2022-12-29T21:12:53.911Z,4.40
2022-12-29T21:15:21.141Z,3.90
2022-12-29T21:17:48.246Z,4.30
2022-12-29T21:20:20.199Z,4.90
2022-12-29T21:22:48.436Z,4.70
2022-12-29T21:25:19.043Z,6.30
2022-12-29T21:27:45.916Z,4.90
2022-12-29T21:30:13.192Z,4.60
2022-12-29T21:32:41.519Z,4.00
2022-12-29T21:35:09.241Z,8.70
2022-12-29T21:37:36.347Z,5.10
2022-12-29T21:40:05.741Z,4.00
2022-12-29T21:42:32.841Z,4.60
2022-12-29T21:45:21.107Z,10.30
2022-12-29T21:48:07.328Z,4.50
2022-12-29T21:50:58.276Z,4.00
2022-12-29T21:53:37.767Z,5.10
2022-12-29T21:56:09.561Z,3.70
2022-12-29T21:58:56.526Z,4.20
2022-12-29T22:01:43.229Z,4.60
2022-12-29T22:04:36.798Z,4.30
2022-12-29T22:07:23.048Z,3.80
2022-12-29T22:10:09.219Z,5.40
2022-12-29T22:12:55.331Z,5.70
2022-12-29T22:15:22.517Z,4.60
2022-12-29T22:17:51.029Z,4.40
2022-12-29T22:20:25.756Z,4.00
2022-12-29T22:22:52.729Z,4.50
2022-12-29T22:25:20.070Z,4.30
2022-12-29T22:27:47.191Z,4.30
2022-12-29T22:30:16.464Z,4.30
2022-12-29T22:32:44.154Z,4.40
2022-12-29T22:35:11.682Z,5.00
2022-12-29T22:40:10.959Z,4.20
2022-12-29T22:42:38.809Z,4.20
2022-12-29T22:45:06.897Z,4.50
2022-12-29T22:47:34.143Z,4.40
2022-12-29T22:50:01.188Z,4.50
2022-12-29T22:52:28.628Z,5.00
2022-12-29T22:54:55.713Z,5.00
2022-12-29T22:57:23.969Z,4.50
2022-12-29T22:59:50.912Z,4.90
2022-12-29T23:02:18.342Z,4.50
2022-12-29T23:07:33.528Z,3.30
2022-12-29T23:10:01.004Z,3.80
2022-12-29T23:12:31.585Z,4.20
2022-12-29T23:14:58.853Z,4.00
2022-12-29T23:17:26.131Z,4.30
2022-12-29T23:19:53.185Z,4.20
2022-12-29T23:22:23.286Z,3.60
2022-12-29T23:24:50.480Z,5.00
2022-12-29T23:27:17.360Z,4.60
2022-12-29T23:29:46.512Z,4.10
2022-12-29T23:32:13.586Z,4.30
2022-12-29T23:34:40.393Z,4.60
2022-12-29T23:37:07.465Z,4.00
2022-12-29T23:39:34.571Z,5.00
2022-12-29T23:42:01.752Z,4.20
2022-12-29T23:44:28.776Z,4.10
2022-12-29T23:46:55.972Z,4.30
2022-12-29T23:49:23.212Z,3.80
2022-12-29T23:51:50.221Z,4.00
2022-12-29T23:54:17.261Z,3.90
2022-12-29T23:56:44.010Z,4.10
2022-12-29T23:59:11.248Z,4.70
